Gentryville, Indiana
Current Conditions -  °F | °C
As of 5:55 PM on Saturday 25 Oct 2014 (Local Time) from KHNB Reporting Station
Clear Clear  
Wind Chill: 68°   Ceiling: Unl
Heat Index: 68°   Visibility: 10mi
Dew Point: 54°   Wind: 5mph
Humidity: 60%   Direction: 300°WNW
Pressure: 29.99"   Gusts: NA
Location:  38.1°N, 87.03°W
Report Text: KHNB 252255Z AUTO 30004KT 10SM CLR 20/12 A2999 RMK AO1
Loading
Personal Weather Stations






























Interactive Weather Map
Tropical Storm Tracking
New forecast layout! Learn more

10-Day Weather Forecast

Advertisements
Track Severe Weather on mobile